sensor_id;sensor_type;location;lat;lon;timestamp;P1;durP1;ratioP1;P2;durP2;ratioP2
54557;SDS011;40452;50.080;20.040;2023-08-12T04:18:07;9.43;;;4.90;;
54557;SDS011;40452;50.080;20.040;2023-08-12T04:20:33;12.27;;;4.80;;
54557;SDS011;40452;50.080;20.040;2023-08-12T04:22:58;8.02;;;4.60;;
54557;SDS011;40452;50.080;20.040;2023-08-12T04:25:24;7.40;;;4.38;;
54557;SDS011;40452;50.080;20.040;2023-08-12T04:27:50;8.85;;;4.93;;
54557;SDS011;40452;50.080;20.040;2023-08-12T04:30:16;4.78;;;4.15;;
54557;SDS011;40452;50.080;20.040;2023-08-12T04:32:42;9.57;;;4.47;;
54557;SDS011;40452;50.080;20.040;2023-08-12T04:35:08;7.38;;;4.68;;
54557;SDS011;40452;50.080;20.040;2023-08-12T04:37:35;9.63;;;4.55;;
54557;SDS011;40452;50.080;20.040;2023-08-12T04:40:01;11.05;;;4.93;;
54557;SDS011;40452;50.080;20.040;2023-08-12T04:42:29;7.35;;;5.10;;
54557;SDS011;40452;50.080;20.040;2023-08-12T04:44:55;16.20;;;4.90;;
54557;SDS011;40452;50.080;20.040;2023-08-12T04:47:21;9.77;;;4.70;;
54557;SDS011;40452;50.080;20.040;2023-08-12T04:49:47;9.15;;;5.28;;
54557;SDS011;40452;50.080;20.040;2023-08-12T04:52:12;8.40;;;5.00;;
54557;SDS011;40452;50.080;20.040;2023-08-12T04:54:38;8.65;;;4.95;;
54557;SDS011;40452;50.080;20.040;2023-08-12T04:57:04;7.47;;;4.75;;
54557;SDS011;40452;50.080;20.040;2023-08-12T04:59:30;8.98;;;5.20;;
54557;SDS011;40452;50.080;20.040;2023-08-12T05:01:56;11.65;;;5.20;;
54557;SDS011;40452;50.080;20.040;2023-08-12T05:04:21;12.75;;;5.38;;
54557;SDS011;40452;50.080;20.040;2023-08-12T05:06:47;9.05;;;4.70;;
54557;SDS011;40452;50.080;20.040;2023-08-12T05:09:13;11.93;;;5.60;;
54557;SDS011;40452;50.080;20.040;2023-08-12T05:11:39;9.88;;;5.20;;
54557;SDS011;40452;50.080;20.040;2023-08-12T05:14:05;9.60;;;5.00;;
54557;SDS011;40452;50.080;20.040;2023-08-12T05:16:30;8.80;;;5.10;;
54557;SDS011;40452;50.080;20.040;2023-08-12T05:18:56;13.20;;;5.80;;
54557;SDS011;40452;50.080;20.040;2023-08-12T05:21:22;10.13;;;4.93;;
54557;SDS011;40452;50.080;20.040;2023-08-12T05:23:48;8.95;;;4.50;;
54557;SDS011;40452;50.080;20.040;2023-08-12T05:26:13;7.22;;;4.65;;
54557;SDS011;40452;50.080;20.040;2023-08-12T05:28:39;7.68;;;4.43;;
54557;SDS011;40452;50.080;20.040;2023-08-12T05:31:04;8.90;;;4.70;;
54557;SDS011;40452;50.080;20.040;2023-08-12T05:33:30;9.18;;;4.70;;
54557;SDS011;40452;50.080;20.040;2023-08-12T05:35:55;7.82;;;4.70;;
54557;SDS011;40452;50.080;20.040;2023-08-12T05:38:21;8.27;;;4.60;;
54557;SDS011;40452;50.080;20.040;2023-08-12T05:40:47;8.00;;;4.43;;
54557;SDS011;40452;50.080;20.040;2023-08-12T05:43:12;10.27;;;4.80;;
54557;SDS011;40452;50.080;20.040;2023-08-12T05:45:38;8.65;;;5.30;;
54557;SDS011;40452;50.080;20.040;2023-08-12T05:48:03;17.88;;;4.85;;
54557;SDS011;40452;50.080;20.040;2023-08-12T05:50:29;10.25;;;4.72;;
54557;SDS011;40452;50.080;20.040;2023-08-12T05:52:55;7.75;;;4.43;;
54557;SDS011;40452;50.080;20.040;2023-08-12T05:55:20;6.72;;;4.68;;
54557;SDS011;40452;50.080;20.040;2023-08-12T05:57:46;8.00;;;4.85;;
54557;SDS011;40452;50.080;20.040;2023-08-12T06:00:12;8.20;;;4.88;;
54557;SDS011;40452;50.080;20.040;2023-08-12T06:02:38;8.77;;;4.60;;
54557;SDS011;40452;50.080;20.040;2023-08-12T06:05:03;8.95;;;4.57;;
54557;SDS011;40452;50.080;20.040;2023-08-12T06:07:29;11.77;;;4.78;;
54557;SDS011;40452;50.080;20.040;2023-08-12T06:09:55;6.78;;;4.60;;
54557;SDS011;40452;50.080;20.040;2023-08-12T06:12:20;8.38;;;4.68;;
54557;SDS011;40452;50.080;20.040;2023-08-12T06:14:46;8.07;;;5.13;;
54557;SDS011;40452;50.080;20.040;2023-08-12T06:17:12;7.68;;;4.65;;
54557;SDS011;40452;50.080;20.040;2023-08-12T06:19:37;7.38;;;4.60;;
54557;SDS011;40452;50.080;20.040;2023-08-12T06:22:03;8.30;;;5.10;;
54557;SDS011;40452;50.080;20.040;2023-08-12T06:24:28;9.40;;;4.85;;
54557;SDS011;40452;50.080;20.040;2023-08-12T06:26:54;9.20;;;4.75;;
54557;SDS011;40452;50.080;20.040;2023-08-12T06:29:20;9.27;;;4.70;;
54557;SDS011;40452;50.080;20.040;2023-08-12T06:31:45;6.15;;;4.63;;
54557;SDS011;40452;50.080;20.040;2023-08-12T06:34:11;8.70;;;4.47;;
54557;SDS011;40452;50.080;20.040;2023-08-12T06:36:36;8.50;;;4.70;;
54557;SDS011;40452;50.080;20.040;2023-08-12T06:39:02;8.68;;;4.68;;
54557;SDS011;40452;50.080;20.040;2023-08-12T06:41:28;8.50;;;4.50;;
54557;SDS011;40452;50.080;20.040;2023-08-12T06:43:54;6.13;;;4.25;;
54557;SDS011;40452;50.080;20.040;2023-08-12T06:46:19;10.88;;;4.88;;
54557;SDS011;40452;50.080;20.040;2023-08-12T06:48:45;10.82;;;4.63;;
54557;SDS011;40452;50.080;20.040;2023-08-12T06:51:10;16.00;;;4.75;;
54557;SDS011;40452;50.080;20.040;2023-08-12T06:53:36;11.65;;;5.10;;
54557;SDS011;40452;50.080;20.040;2023-08-12T06:56:03;9.48;;;4.65;;
54557;SDS011;40452;50.080;20.040;2023-08-12T06:58:29;9.93;;;4.50;;
54557;SDS011;40452;50.080;20.040;2023-08-12T07:00:54;11.23;;;5.13;;
54557;SDS011;40452;50.080;20.040;2023-08-12T07:03:20;11.73;;;6.05;;
54557;SDS011;40452;50.080;20.040;2023-08-12T07:05:46;11.90;;;6.05;;
54557;SDS011;40452;50.080;20.040;2023-08-12T07:08:12;14.40;;;6.35;;
54557;SDS011;40452;50.080;20.040;2023-08-12T07:10:38;11.23;;;6.38;;
54557;SDS011;40452;50.080;20.040;2023-08-12T07:13:04;11.20;;;6.20;;
54557;SDS011;40452;50.080;20.040;2023-08-12T07:15:30;18.58;;;9.50;;
54557;SDS011;40452;50.080;20.040;2023-08-12T07:17:55;25.45;;;16.00;;
54557;SDS011;40452;50.080;20.040;2023-08-12T07:20:22;29.02;;;17.52;;
54557;SDS011;40452;50.080;20.040;2023-08-12T07:22:49;26.92;;;16.73;;
54557;SDS011;40452;50.080;20.040;2023-08-12T07:25:15;22.50;;;15.23;;
54557;SDS011;40452;50.080;20.040;2023-08-12T07:27:40;15.70;;;9.38;;
54557;SDS011;40452;50.080;20.040;2023-08-12T07:30:06;12.43;;;8.27;;
54557;SDS011;40452;50.080;20.040;2023-08-12T07:32:32;12.90;;;7.43;;
54557;SDS011;40452;50.080;20.040;2023-08-12T07:34:58;14.63;;;7.78;;
54557;SDS011;40452;50.080;20.040;2023-08-12T07:37:24;11.02;;;6.72;;
54557;SDS011;40452;50.080;20.040;2023-08-12T07:39:50;10.07;;;6.75;;
54557;SDS011;40452;50.080;20.040;2023-08-12T07:42:16;12.27;;;6.70;;
54557;SDS011;40452;50.080;20.040;2023-08-12T07:44:42;10.30;;;6.15;;
54557;SDS011;40452;50.080;20.040;2023-08-12T07:47:08;12.05;;;6.22;;
54557;SDS011;40452;50.080;20.040;2023-08-12T07:49:34;10.27;;;6.47;;
54557;SDS011;40452;50.080;20.040;2023-08-12T07:52:00;10.70;;;6.13;;
54557;SDS011;40452;50.080;20.040;2023-08-12T07:54:25;10.57;;;6.65;;
54557;SDS011;40452;50.080;20.040;2023-08-12T07:56:51;11.90;;;6.20;;
54557;SDS011;40452;50.080;20.040;2023-08-12T07:59:18;10.25;;;5.60;;
54557;SDS011;40452;50.080;20.040;2023-08-12T08:01:44;11.63;;;6.05;;
54557;SDS011;40452;50.080;20.040;2023-08-12T08:04:10;9.77;;;5.88;;
54557;SDS011;40452;50.080;20.040;2023-08-12T08:06:36;9.60;;;5.82;;
54557;SDS011;40452;50.080;20.040;2023-08-12T08:09:01;9.00;;;5.53;;
54557;SDS011;40452;50.080;20.040;2023-08-12T08:11:28;10.23;;;6.10;;
54557;SDS011;40452;50.080;20.040;2023-08-12T08:13:55;11.18;;;6.13;;
54557;SDS011;40452;50.080;20.040;2023-08-12T08:16:20;9.95;;;5.05;;
54557;SDS011;40452;50.080;20.040;2023-08-12T08:18:46;6.85;;;5.13;;
54557;SDS011;40452;50.080;20.040;2023-08-12T08:21:12;10.98;;;5.15;;
54557;SDS011;40452;50.080;20.040;2023-08-12T08:23:39;8.02;;;4.97;;
54557;SDS011;40452;50.080;20.040;2023-08-12T08:26:06;8.43;;;4.97;;
54557;SDS011;40452;50.080;20.040;2023-08-12T08:28:31;8.63;;;5.05;;
54557;SDS011;40452;50.080;20.040;2023-08-12T08:30:57;5.97;;;4.53;;
54557;SDS011;40452;50.080;20.040;2023-08-12T08:33:24;9.13;;;4.90;;
54557;SDS011;40452;50.080;20.040;2023-08-12T08:35:50;6.30;;;4.45;;
54557;SDS011;40452;50.080;20.040;2023-08-12T08:38:16;7.15;;;4.70;;
54557;SDS011;40452;50.080;20.040;2023-08-12T08:40:42;7.97;;;4.70;;
54557;SDS011;40452;50.080;20.040;2023-08-12T08:43:08;7.30;;;4.00;;
54557;SDS011;40452;50.080;20.040;2023-08-12T08:45:35;10.07;;;4.65;;
54557;SDS011;40452;50.080;20.040;2023-08-12T08:48:02;9.95;;;4.78;;
54557;SDS011;40452;50.080;20.040;2023-08-12T08:50:28;6.60;;;4.20;;
54557;SDS011;40452;50.080;20.040;2023-08-12T08:52:55;7.80;;;4.20;;
54557;SDS011;40452;50.080;20.040;2023-08-12T08:55:22;6.45;;;4.22;;
54557;SDS011;40452;50.080;20.040;2023-08-12T08:57:47;8.40;;;4.70;;
54557;SDS011;40452;50.080;20.040;2023-08-12T09:00:15;6.28;;;4.30;;
54557;SDS011;40452;50.080;20.040;2023-08-12T09:02:42;7.03;;;4.30;;
54557;SDS011;40452;50.080;20.040;2023-08-12T09:05:09;6.78;;;4.65;;
54557;SDS011;40452;50.080;20.040;2023-08-12T09:07:37;6.00;;;4.57;;
54557;SDS011;40452;50.080;20.040;2023-08-12T09:10:05;10.07;;;4.03;;
54557;SDS011;40452;50.080;20.040;2023-08-12T09:12:33;8.40;;;5.50;;
54557;SDS011;40452;50.080;20.040;2023-08-12T09:14:59;5.30;;;4.10;;
54557;SDS011;40452;50.080;20.040;2023-08-12T09:17:24;6.28;;;3.72;;
54557;SDS011;40452;50.080;20.040;2023-08-12T09:19:50;6.32;;;3.97;;
54557;SDS011;40452;50.080;20.040;2023-08-12T09:22:17;8.40;;;3.58;;
54557;SDS011;40452;50.080;20.040;2023-08-12T09:24:43;6.28;;;3.72;;
54557;SDS011;40452;50.080;20.040;2023-08-12T09:27:08;7.50;;;3.78;;
54557;SDS011;40452;50.080;20.040;2023-08-12T09:29:35;7.32;;;4.32;;
54557;SDS011;40452;50.080;20.040;2023-08-12T09:32:17;7.55;;;4.55;;
54557;SDS011;40452;50.080;20.040;2023-08-12T09:34:51;7.85;;;4.22;;
54557;SDS011;40452;50.080;20.040;2023-08-12T09:37:18;6.53;;;3.83;;
54557;SDS011;40452;50.080;20.040;2023-08-12T09:39:44;7.07;;;4.10;;
54557;SDS011;40452;50.080;20.040;2023-08-12T09:42:11;5.85;;;3.90;;
54557;SDS011;40452;50.080;20.040;2023-08-12T09:44:37;7.53;;;4.13;;
54557;SDS011;40452;50.080;20.040;2023-08-12T09:47:03;5.95;;;3.88;;
54557;SDS011;40452;50.080;20.040;2023-08-12T09:49:30;7.85;;;3.70;;
54557;SDS011;40452;50.080;20.040;2023-08-12T09:51:56;5.57;;;4.05;;
54557;SDS011;40452;50.080;20.040;2023-08-12T09:54:22;6.43;;;4.00;;
54557;SDS011;40452;50.080;20.040;2023-08-12T09:56:51;7.07;;;4.20;;
54557;SDS011;40452;50.080;20.040;2023-08-12T09:59:21;7.88;;;4.18;;
54557;SDS011;40452;50.080;20.040;2023-08-12T10:01:49;7.10;;;4.05;;
54557;SDS011;40452;50.080;20.040;2023-08-12T10:04:18;5.93;;;4.05;;
54557;SDS011;40452;50.080;20.040;2023-08-12T10:06:48;6.10;;;3.67;;
54557;SDS011;40452;50.080;20.040;2023-08-12T10:09:15;7.85;;;3.33;;
54557;SDS011;40452;50.080;20.040;2023-08-12T10:11:45;4.80;;;3.40;;
54557;SDS011;40452;50.080;20.040;2023-08-12T10:14:12;5.47;;;3.80;;
54557;SDS011;40452;50.080;20.040;2023-08-12T10:16:38;8.48;;;4.10;;
54557;SDS011;40452;50.080;20.040;2023-08-12T10:19:04;7.05;;;4.10;;
54557;SDS011;40452;50.080;20.040;2023-08-12T10:21:31;6.93;;;4.13;;
54557;SDS011;40452;50.080;20.040;2023-08-12T10:23:57;5.78;;;3.90;;
54557;SDS011;40452;50.080;20.040;2023-08-12T10:26:24;6.40;;;4.10;;
54557;SDS011;40452;50.080;20.040;2023-08-12T10:28:50;7.10;;;4.25;;
54557;SDS011;40452;50.080;20.040;2023-08-12T10:31:16;6.57;;;4.18;;
54557;SDS011;40452;50.080;20.040;2023-08-12T10:33:43;6.07;;;3.88;;
54557;SDS011;40452;50.080;20.040;2023-08-12T10:36:09;5.68;;;3.75;;
54557;SDS011;40452;50.080;20.040;2023-08-12T10:38:35;9.85;;;3.63;;
54557;SDS011;40452;50.080;20.040;2023-08-12T10:41:17;5.57;;;3.90;;
54557;SDS011;40452;50.080;20.040;2023-08-12T10:43:55;7.93;;;4.05;;
54557;SDS011;40452;50.080;20.040;2023-08-12T10:51:40;7.75;;;3.70;;
54557;SDS011;40452;50.080;20.040;2023-08-12T10:54:14;7.65;;;4.13;;
54557;SDS011;40452;50.080;20.040;2023-08-12T11:02:15;8.00;;;3.97;;
54557;SDS011;40452;50.080;20.040;2023-08-12T11:04:42;6.45;;;3.97;;
54557;SDS011;40452;50.080;20.040;2023-08-12T11:07:18;6.50;;;3.70;;
54557;SDS011;40452;50.080;20.040;2023-08-12T11:09:45;6.65;;;3.90;;
54557;SDS011;40452;50.080;20.040;2023-08-12T11:12:17;6.65;;;3.83;;
54557;SDS011;40452;50.080;20.040;2023-08-12T11:14:47;5.13;;;3.20;;
54557;SDS011;40452;50.080;20.040;2023-08-12T11:17:36;6.88;;;3.80;;
54557;SDS011;40452;50.080;20.040;2023-08-12T11:20:05;7.43;;;3.58;;
54557;SDS011;40452;50.080;20.040;2023-08-12T11:22:32;5.70;;;3.38;;
54557;SDS011;40452;50.080;20.040;2023-08-12T11:25:11;9.02;;;3.30;;
54557;SDS011;40452;50.080;20.040;2023-08-12T11:27:44;5.63;;;3.47;;
54557;SDS011;40452;50.080;20.040;2023-08-12T11:30:11;6.40;;;3.40;;
54557;SDS011;40452;50.080;20.040;2023-08-12T11:32:40;5.57;;;3.53;;
54557;SDS011;40452;50.080;20.040;2023-08-12T11:35:07;6.18;;;3.28;;
54557;SDS011;40452;50.080;20.040;2023-08-12T11:37:38;6.10;;;3.17;;
54557;SDS011;40452;50.080;20.040;2023-08-12T11:40:06;7.10;;;3.70;;
54557;SDS011;40452;50.080;20.040;2023-08-12T11:42:34;9.32;;;3.22;;
54557;SDS011;40452;50.080;20.040;2023-08-12T11:45:04;5.80;;;3.33;;
54557;SDS011;40452;50.080;20.040;2023-08-12T11:47:31;7.10;;;3.10;;
54557;SDS011;40452;50.080;20.040;2023-08-12T11:49:58;9.90;;;3.53;;
54557;SDS011;40452;50.080;20.040;2023-08-12T11:52:23;5.50;;;3.05;;
54557;SDS011;40452;50.080;20.040;2023-08-12T11:54:52;5.75;;;3.10;;
54557;SDS011;40452;50.080;20.040;2023-08-12T11:57:18;6.63;;;3.13;;
54557;SDS011;40452;50.080;20.040;2023-08-12T11:59:44;5.47;;;3.10;;
54557;SDS011;40452;50.080;20.040;2023-08-12T12:02:10;6.18;;;2.95;;
54557;SDS011;40452;50.080;20.040;2023-08-12T12:04:37;4.90;;;3.13;;
54557;SDS011;40452;50.080;20.040;2023-08-12T12:07:03;5.00;;;2.92;;
54557;SDS011;40452;50.080;20.040;2023-08-12T12:09:43;4.30;;;2.97;;
54557;SDS011;40452;50.080;20.040;2023-08-12T12:12:09;8.32;;;2.92;;
54557;SDS011;40452;50.080;20.040;2023-08-12T12:14:35;5.97;;;2.78;;
54557;SDS011;40452;50.080;20.040;2023-08-12T12:17:06;4.60;;;2.80;;
54557;SDS011;40452;50.080;20.040;2023-08-12T12:19:33;5.40;;;2.70;;
54557;SDS011;40452;50.080;20.040;2023-08-12T12:22:01;5.57;;;2.63;;
54557;SDS011;40452;50.080;20.040;2023-08-12T12:24:29;6.07;;;3.92;;
54557;SDS011;40452;50.080;20.040;2023-08-12T12:26:55;5.00;;;3.00;;
54557;SDS011;40452;50.080;20.040;2023-08-12T12:29:21;4.78;;;2.90;;
54557;SDS011;40452;50.080;20.040;2023-08-12T12:31:47;4.38;;;2.90;;
54557;SDS011;40452;50.080;20.040;2023-08-12T12:34:13;4.63;;;2.70;;
54557;SDS011;40452;50.080;20.040;2023-08-12T12:36:39;4.85;;;2.60;;
54557;SDS011;40452;50.080;20.040;2023-08-12T12:39:05;4.20;;;2.17;;
54557;SDS011;40452;50.080;20.040;2023-08-12T12:41:32;4.05;;;2.55;;
54557;SDS011;40452;50.080;20.040;2023-08-12T12:43:59;4.30;;;2.60;;
54557;SDS011;40452;50.080;20.040;2023-08-12T12:46:26;9.43;;;2.63;;
54557;SDS011;40452;50.080;20.040;2023-08-12T12:48:52;3.92;;;2.45;;
54557;SDS011;40452;50.080;20.040;2023-08-12T12:51:17;4.18;;;2.50;;
54557;SDS011;40452;50.080;20.040;2023-08-12T12:53:43;5.03;;;2.63;;
54557;SDS011;40452;50.080;20.040;2023-08-12T12:56:09;6.88;;;2.40;;
54557;SDS011;40452;50.080;20.040;2023-08-12T12:58:35;4.70;;;2.42;;
54557;SDS011;40452;50.080;20.040;2023-08-12T13:01:02;4.05;;;2.47;;
54557;SDS011;40452;50.080;20.040;2023-08-12T13:03:30;4.45;;;2.40;;
54557;SDS011;40452;50.080;20.040;2023-08-12T13:05:56;4.22;;;2.70;;
54557;SDS011;40452;50.080;20.040;2023-08-12T13:08:22;4.57;;;2.60;;
54557;SDS011;40452;50.080;20.040;2023-08-12T13:10:48;5.10;;;2.70;;
54557;SDS011;40452;50.080;20.040;2023-08-12T13:13:14;4.53;;;2.65;;
54557;SDS011;40452;50.080;20.040;2023-08-12T13:15:43;4.05;;;2.78;;
54557;SDS011;40452;50.080;20.040;2023-08-12T13:18:09;3.60;;;2.70;;
54557;SDS011;40452;50.080;20.040;2023-08-12T13:20:36;5.82;;;3.53;;
54557;SDS011;40452;50.080;20.040;2023-08-12T13:23:02;5.97;;;2.80;;
54557;SDS011;40452;50.080;20.040;2023-08-12T13:25:29;3.92;;;3.08;;
54557;SDS011;40452;50.080;20.040;2023-08-12T13:27:56;7.20;;;3.53;;
54557;SDS011;40452;50.080;20.040;2023-08-12T13:30:22;5.10;;;3.33;;
54557;SDS011;40452;50.080;20.040;2023-08-12T13:32:48;6.05;;;3.80;;
54557;SDS011;40452;50.080;20.040;2023-08-12T13:35:13;7.90;;;3.67;;
54557;SDS011;40452;50.080;20.040;2023-08-12T13:37:39;9.18;;;3.78;;
54557;SDS011;40452;50.080;20.040;2023-08-12T13:40:05;6.65;;;3.60;;
54557;SDS011;40452;50.080;20.040;2023-08-12T13:42:31;5.55;;;3.65;;
54557;SDS011;40452;50.080;20.040;2023-08-12T13:44:57;6.40;;;3.33;;
54557;SDS011;40452;50.080;20.040;2023-08-12T13:47:22;8.43;;;3.38;;
54557;SDS011;40452;50.080;20.040;2023-08-12T13:49:48;10.32;;;3.40;;
54557;SDS011;40452;50.080;20.040;2023-08-12T13:52:14;4.20;;;2.70;;
54557;SDS011;40452;50.080;20.040;2023-08-12T13:54:40;5.55;;;3.03;;
54557;SDS011;40452;50.080;20.040;2023-08-12T13:57:05;6.88;;;3.35;;
54557;SDS011;40452;50.080;20.040;2023-08-12T13:59:31;7.53;;;3.45;;
54557;SDS011;40452;50.080;20.040;2023-08-12T14:01:56;4.65;;;3.25;;
54557;SDS011;40452;50.080;20.040;2023-08-12T14:04:22;5.80;;;3.40;;
54557;SDS011;40452;50.080;20.040;2023-08-12T14:06:48;5.18;;;3.20;;
54557;SDS011;40452;50.080;20.040;2023-08-12T14:09:13;6.47;;;3.40;;
54557;SDS011;40452;50.080;20.040;2023-08-12T14:11:42;6.40;;;3.38;;
54557;SDS011;40452;50.080;20.040;2023-08-12T14:14:07;5.22;;;2.97;;
54557;SDS011;40452;50.080;20.040;2023-08-12T14:16:33;5.75;;;3.75;;
54557;SDS011;40452;50.080;20.040;2023-08-12T14:18:59;6.80;;;3.20;;
54557;SDS011;40452;50.080;20.040;2023-08-12T14:21:25;5.70;;;3.45;;
54557;SDS011;40452;50.080;20.040;2023-08-12T14:23:50;5.05;;;3.40;;
54557;SDS011;40452;50.080;20.040;2023-08-12T14:26:16;3.85;;;2.95;;
54557;SDS011;40452;50.080;20.040;2023-08-12T14:28:41;7.80;;;2.83;;
54557;SDS011;40452;50.080;20.040;2023-08-12T14:31:07;4.45;;;2.95;;
54557;SDS011;40452;50.080;20.040;2023-08-12T14:33:33;3.63;;;2.25;;
54557;SDS011;40452;50.080;20.040;2023-08-12T14:35:58;4.35;;;2.88;;
54557;SDS011;40452;50.080;20.040;2023-08-12T14:38:24;3.92;;;2.70;;
54557;SDS011;40452;50.080;20.040;2023-08-12T14:40:50;8.70;;;3.17;;
54557;SDS011;40452;50.080;20.040;2023-08-12T14:43:15;8.07;;;2.95;;
54557;SDS011;40452;50.080;20.040;2023-08-12T14:45:41;4.72;;;2.90;;
54557;SDS011;40452;50.080;20.040;2023-08-12T14:48:09;4.10;;;3.00;;
54557;SDS011;40452;50.080;20.040;2023-08-12T14:50:34;6.05;;;3.00;;
54557;SDS011;40452;50.080;20.040;2023-08-12T14:53:02;5.85;;;3.30;;
54557;SDS011;40452;50.080;20.040;2023-08-12T14:55:28;4.82;;;2.80;;
54557;SDS011;40452;50.080;20.040;2023-08-12T14:57:54;4.50;;;3.25;;
54557;SDS011;40452;50.080;20.040;2023-08-12T15:00:19;5.10;;;3.22;;
54557;SDS011;40452;50.080;20.040;2023-08-12T15:02:45;5.85;;;2.85;;
54557;SDS011;40452;50.080;20.040;2023-08-12T15:05:11;5.18;;;2.53;;
54557;SDS011;40452;50.080;20.040;2023-08-12T15:07:37;4.00;;;2.97;;
54557;SDS011;40452;50.080;20.040;2023-08-12T15:10:03;6.32;;;2.70;;
54557;SDS011;40452;50.080;20.040;2023-08-12T15:12:29;4.93;;;2.70;;
54557;SDS011;40452;50.080;20.040;2023-08-12T15:14:55;4.22;;;2.70;;
54557;SDS011;40452;50.080;20.040;2023-08-12T15:17:21;4.95;;;2.75;;
54557;SDS011;40452;50.080;20.040;2023-08-12T15:19:46;6.38;;;2.65;;
54557;SDS011;40452;50.080;20.040;2023-08-12T15:22:12;5.78;;;2.67;;
54557;SDS011;40452;50.080;20.040;2023-08-12T15:24:38;4.70;;;2.65;;
54557;SDS011;40452;50.080;20.040;2023-08-12T15:27:03;4.85;;;2.42;;
54557;SDS011;40452;50.080;20.040;2023-08-12T15:29:29;3.55;;;2.40;;
54557;SDS011;40452;50.080;20.040;2023-08-12T15:31:55;5.82;;;2.63;;
54557;SDS011;40452;50.080;20.040;2023-08-12T15:34:21;3.88;;;2.80;;
54557;SDS011;40452;50.080;20.040;2023-08-12T15:36:46;4.07;;;2.70;;
54557;SDS011;40452;50.080;20.040;2023-08-12T15:39:12;4.03;;;2.35;;
54557;SDS011;40452;50.080;20.040;2023-08-12T15:41:42;4.45;;;2.33;;
54557;SDS011;40452;50.080;20.040;2023-08-12T15:44:08;4.38;;;2.70;;
54557;SDS011;40452;50.080;20.040;2023-08-12T15:46:37;4.40;;;3.13;;
54557;SDS011;40452;50.080;20.040;2023-08-12T15:49:03;4.93;;;2.70;;
54557;SDS011;40452;50.080;20.040;2023-08-12T15:51:35;5.35;;;2.95;;
54557;SDS011;40452;50.080;20.040;2023-08-12T15:54:01;6.05;;;2.88;;
54557;SDS011;40452;50.080;20.040;2023-08-12T15:56:27;3.75;;;2.60;;
54557;SDS011;40452;50.080;20.040;2023-08-12T15:58:53;3.70;;;2.90;;
54557;SDS011;40452;50.080;20.040;2023-08-12T16:01:18;3.83;;;2.80;;
54557;SDS011;40452;50.080;20.040;2023-08-12T16:03:48;5.45;;;2.63;;
54557;SDS011;40452;50.080;20.040;2023-08-12T16:06:13;3.45;;;2.50;;
54557;SDS011;40452;50.080;20.040;2023-08-12T16:08:39;4.30;;;3.10;;
54557;SDS011;40452;50.080;20.040;2023-08-12T16:11:04;5.85;;;2.72;;
54557;SDS011;40452;50.080;20.040;2023-08-12T16:13:30;5.57;;;2.83;;
54557;SDS011;40452;50.080;20.040;2023-08-12T16:15:57;6.97;;;3.67;;
54557;SDS011;40452;50.080;20.040;2023-08-12T16:18:23;6.30;;;3.25;;
54557;SDS011;40452;50.080;20.040;2023-08-12T16:20:49;5.35;;;3.50;;
54557;SDS011;40452;50.080;20.040;2023-08-12T16:23:15;5.97;;;3.85;;
54557;SDS011;40452;50.080;20.040;2023-08-12T16:25:40;6.75;;;3.95;;
54557;SDS011;40452;50.080;20.040;2023-08-12T16:28:06;6.82;;;3.30;;
54557;SDS011;40452;50.080;20.040;2023-08-12T16:30:32;5.72;;;3.05;;
54557;SDS011;40452;50.080;20.040;2023-08-12T16:32:58;4.50;;;3.13;;
54557;SDS011;40452;50.080;20.040;2023-08-12T16:35:23;5.45;;;3.30;;
54557;SDS011;40452;50.080;20.040;2023-08-12T16:37:49;4.97;;;3.17;;
54557;SDS011;40452;50.080;20.040;2023-08-12T16:40:14;4.93;;;3.22;;
54557;SDS011;40452;50.080;20.040;2023-08-12T16:42:40;3.90;;;2.88;;
54557;SDS011;40452;50.080;20.040;2023-08-12T16:45:06;4.43;;;3.10;;
54557;SDS011;40452;50.080;20.040;2023-08-12T16:47:32;4.22;;;2.95;;
54557;SDS011;40452;50.080;20.040;2023-08-12T16:49:58;4.25;;;2.60;;
54557;SDS011;40452;50.080;20.040;2023-08-12T16:52:24;3.80;;;2.83;;
54557;SDS011;40452;50.080;20.040;2023-08-12T16:54:49;4.07;;;3.05;;
54557;SDS011;40452;50.080;20.040;2023-08-12T16:57:15;4.78;;;2.92;;
54557;SDS011;40452;50.080;20.040;2023-08-12T16:59:41;5.05;;;3.00;;
54557;SDS011;40452;50.080;20.040;2023-08-12T17:02:06;5.50;;;3.38;;
54557;SDS011;40452;50.080;20.040;2023-08-12T17:04:32;7.30;;;3.35;;
54557;SDS011;40452;50.080;20.040;2023-08-12T17:06:57;5.85;;;3.30;;
54557;SDS011;40452;50.080;20.040;2023-08-12T17:09:23;5.75;;;3.70;;
54557;SDS011;40452;50.080;20.040;2023-08-12T17:11:49;7.28;;;3.60;;
54557;SDS011;40452;50.080;20.040;2023-08-12T17:14:15;7.38;;;4.70;;
54557;SDS011;40452;50.080;20.040;2023-08-12T17:16:40;10.10;;;4.32;;
54557;SDS011;40452;50.080;20.040;2023-08-12T17:19:06;6.50;;;4.07;;
54557;SDS011;40452;50.080;20.040;2023-08-12T17:21:32;8.60;;;6.25;;
54557;SDS011;40452;50.080;20.040;2023-08-12T17:23:58;10.60;;;6.00;;
54557;SDS011;40452;50.080;20.040;2023-08-12T17:26:24;10.48;;;5.43;;
54557;SDS011;40452;50.080;20.040;2023-08-12T17:28:50;12.15;;;5.82;;
54557;SDS011;40452;50.080;20.040;2023-08-12T17:31:16;9.85;;;6.32;;
54557;SDS011;40452;50.080;20.040;2023-08-12T17:33:43;8.75;;;5.20;;
54557;SDS011;40452;50.080;20.040;2023-08-12T17:36:09;9.52;;;4.80;;
54557;SDS011;40452;50.080;20.040;2023-08-12T17:38:35;8.82;;;5.30;;
54557;SDS011;40452;50.080;20.040;2023-08-12T17:41:00;16.67;;;12.48;;
54557;SDS011;40452;50.080;20.040;2023-08-12T17:43:27;11.93;;;7.03;;
54557;SDS011;40452;50.080;20.040;2023-08-12T17:45:53;13.05;;;8.60;;
54557;SDS011;40452;50.080;20.040;2023-08-12T17:48:19;22.63;;;14.40;;
54557;SDS011;40452;50.080;20.040;2023-08-12T17:50:45;22.05;;;15.82;;
54557;SDS011;40452;50.080;20.040;2023-08-12T17:53:10;22.48;;;13.70;;
54557;SDS011;40452;50.080;20.040;2023-08-12T17:55:36;20.27;;;12.52;;
54557;SDS011;40452;50.080;20.040;2023-08-12T17:58:02;12.13;;;8.10;;
54557;SDS011;40452;50.080;20.040;2023-08-12T18:00:27;17.45;;;9.35;;
54557;SDS011;40452;50.080;20.040;2023-08-12T18:02:53;12.77;;;7.25;;
54557;SDS011;40452;50.080;20.040;2023-08-12T18:05:19;10.27;;;7.53;;
54557;SDS011;40452;50.080;20.040;2023-08-12T18:07:45;17.98;;;12.30;;
54557;SDS011;40452;50.080;20.040;2023-08-12T18:10:11;20.38;;;11.88;;
54557;SDS011;40452;50.080;20.040;2023-08-12T18:12:37;14.70;;;10.00;;
54557;SDS011;40452;50.080;20.040;2023-08-12T18:15:02;12.27;;;7.40;;
54557;SDS011;40452;50.080;20.040;2023-08-12T18:17:28;13.48;;;9.15;;
54557;SDS011;40452;50.080;20.040;2023-08-12T18:19:54;12.77;;;8.35;;
54557;SDS011;40452;50.080;20.040;2023-08-12T18:22:23;12.05;;;7.13;;
54557;SDS011;40452;50.080;20.040;2023-08-12T18:24:48;10.40;;;7.13;;
54557;SDS011;40452;50.080;20.040;2023-08-12T18:27:14;16.08;;;7.45;;
54557;SDS011;40452;50.080;20.040;2023-08-12T18:29:39;13.68;;;8.15;;
54557;SDS011;40452;50.080;20.040;2023-08-12T18:32:07;12.95;;;7.72;;
54557;SDS011;40452;50.080;20.040;2023-08-12T18:34:33;12.38;;;7.22;;
54557;SDS011;40452;50.080;20.040;2023-08-12T18:36:58;12.13;;;8.23;;
54557;SDS011;40452;50.080;20.040;2023-08-12T18:39:24;14.77;;;8.40;;
54557;SDS011;40452;50.080;20.040;2023-08-12T18:41:50;10.25;;;7.13;;
54557;SDS011;40452;50.080;20.040;2023-08-12T18:44:16;12.30;;;6.57;;
54557;SDS011;40452;50.080;20.040;2023-08-12T18:46:41;10.32;;;6.63;;
54557;SDS011;40452;50.080;20.040;2023-08-12T18:49:07;9.48;;;5.70;;
54557;SDS011;40452;50.080;20.040;2023-08-12T18:51:32;9.35;;;5.80;;
54557;SDS011;40452;50.080;20.040;2023-08-12T18:53:58;8.93;;;5.88;;